Aviation Digital Data Service (ADDS)

Output produced by TAFs form (1053 UTC 20 September 2017)
found at http://www.aviationweather.gov/adds/tafs/
 
KABE 200545Z 2006/2106 33004KT P6SM SCT080 
     FM201400 34010KT P6SM SCT050 
     FM201900 35008KT P6SM BKN050 
     FM210100 VRB03KT P6SM SCT080